createdAt,value
2023-05-14T00:00:33.170Z,13.15
2023-05-14T00:02:36.180Z,13.15
2023-05-14T00:04:40.968Z,13.13
2023-05-14T00:06:43.950Z,13.24
2023-05-14T00:08:47.124Z,13.23
2023-05-14T00:10:50.110Z,13.21
2023-05-14T00:12:53.257Z,13.01
2023-05-14T00:14:56.202Z,13.00
2023-05-14T00:16:59.649Z,12.97
2023-05-14T00:19:02.797Z,12.70
2023-05-14T00:21:07.128Z,12.83
2023-05-14T00:23:10.726Z,12.98
2023-05-14T00:25:14.173Z,12.83
2023-05-14T00:27:17.317Z,12.94
2023-05-14T00:29:20.693Z,12.69
2023-05-14T00:31:24.005Z,12.58
2023-05-14T00:33:27.224Z,12.59
2023-05-14T00:35:30.627Z,12.65
2023-05-14T00:37:36.356Z,12.86
2023-05-14T00:39:39.367Z,12.80
2023-05-14T00:41:42.306Z,12.39
2023-05-14T00:43:45.519Z,12.45
2023-05-14T00:45:50.492Z,12.62
2023-05-14T00:47:53.888Z,12.71
2023-05-14T00:49:56.958Z,12.35
2023-05-14T00:52:00.485Z,12.49
2023-05-14T00:54:05.113Z,12.69
2023-05-14T00:56:08.650Z,12.70
2023-05-14T00:58:13.685Z,12.79
2023-05-14T01:00:18.014Z,12.74
2023-05-14T01:02:21.580Z,12.65
2023-05-14T01:04:24.612Z,12.76
2023-05-14T01:06:35.800Z,12.80
2023-05-14T01:08:46.746Z,12.80
2023-05-14T01:10:54.352Z,12.75
2023-05-14T01:13:03.590Z,12.72
2023-05-14T01:15:12.488Z,12.59
2023-05-14T01:17:20.048Z,12.65
2023-05-14T01:19:27.444Z,12.78
2023-05-14T01:21:40.984Z,12.64
2023-05-14T01:23:44.061Z,12.74
2023-05-14T01:25:47.151Z,12.77
2023-05-14T01:27:54.570Z,12.64
2023-05-14T01:30:10.798Z,12.63
2023-05-14T01:32:14.851Z,12.68
2023-05-14T01:34:21.881Z,12.78
2023-05-14T01:36:26.489Z,12.80
2023-05-14T01:38:33.956Z,12.65
2023-05-14T01:40:37.766Z,12.61
2023-05-14T01:42:40.782Z,12.59
2023-05-14T01:44:44.084Z,12.41
2023-05-14T01:46:47.237Z,12.35
2023-05-14T01:48:50.349Z,12.27
2023-05-14T01:50:53.345Z,12.16
2023-05-14T01:52:57.200Z,12.00
2023-05-14T01:55:02.275Z,11.80
2023-05-14T01:57:05.595Z,11.98
2023-05-14T01:59:08.532Z,12.00
2023-05-14T02:01:12.146Z,12.04
2023-05-14T02:03:15.098Z,12.07
2023-05-14T02:05:18.217Z,12.08
2023-05-14T02:07:21.164Z,12.07
2023-05-14T02:09:24.244Z,12.06
2023-05-14T02:11:29.022Z,12.04
2023-05-14T02:13:31.990Z,12.16
2023-05-14T02:15:35.039Z,12.03
2023-05-14T02:17:38.890Z,12.05
2023-05-14T02:19:42.294Z,12.03
2023-05-14T02:21:48.975Z,12.03
2023-05-14T02:23:51.925Z,12.10
2023-05-14T02:25:54.958Z,12.07
2023-05-14T02:27:59.447Z,12.21
2023-05-14T02:30:02.859Z,12.25
2023-05-14T02:32:06.732Z,12.26
2023-05-14T02:34:10.026Z,12.19
2023-05-14T02:36:12.976Z,12.00
2023-05-14T02:38:15.954Z,12.11
2023-05-14T02:40:19.478Z,12.13
2023-05-14T02:42:22.922Z,12.13
2023-05-14T02:44:27.434Z,11.91
2023-05-14T02:46:31.619Z,11.95
2023-05-14T02:48:34.606Z,11.96
2023-05-14T02:50:37.460Z,12.09
2023-05-14T02:52:40.408Z,12.14
2023-05-14T02:54:43.472Z,12.17
2023-05-14T02:56:47.282Z,12.25
2023-05-14T02:58:50.264Z,12.25
2023-05-14T03:00:54.981Z,12.26
2023-05-14T03:02:58.397Z,12.19
2023-05-14T03:05:01.920Z,12.21
2023-05-14T03:07:05.196Z,12.31
2023-05-14T03:09:08.216Z,12.32
2023-05-14T03:11:11.411Z,12.33
2023-05-14T03:13:17.882Z,12.34
2023-05-14T03:15:21.297Z,12.34
2023-05-14T03:17:26.068Z,12.35
2023-05-14T03:19:29.146Z,12.37
2023-05-14T03:21:32.566Z,12.39
2023-05-14T03:23:35.695Z,12.39
2023-05-14T03:25:38.692Z,12.43
2023-05-14T03:27:41.614Z,12.39
2023-05-14T03:29:44.695Z,12.39
2023-05-14T03:31:48.025Z,12.37
2023-05-14T03:33:53.637Z,12.33
2023-05-14T03:35:56.724Z,12.19
2023-05-14T03:38:00.575Z,12.24
2023-05-14T03:40:03.647Z,12.26
2023-05-14T03:42:07.926Z,12.28
2023-05-14T03:44:10.827Z,12.35
2023-05-14T03:46:14.076Z,12.33
2023-05-14T03:48:17.137Z,12.36
2023-05-14T03:50:21.853Z,12.32
2023-05-14T03:52:24.913Z,12.27
2023-05-14T03:54:28.288Z,12.31
2023-05-14T03:56:31.313Z,12.34
2023-05-14T03:58:34.289Z,12.31
2023-05-14T04:00:37.383Z,12.35
2023-05-14T04:02:40.502Z,12.39
2023-05-14T04:04:43.554Z,12.40
2023-05-14T04:06:48.303Z,12.40
2023-05-14T04:08:51.201Z,12.32
2023-05-14T04:10:54.163Z,12.32
2023-05-14T04:12:59.139Z,12.36
2023-05-14T04:15:08.106Z,12.38
2023-05-14T04:17:11.282Z,12.32
2023-05-14T04:19:14.558Z,12.27
2023-05-14T04:21:18.091Z,12.23
2023-05-14T04:23:22.974Z,12.19
2023-05-14T04:25:26.033Z,12.19
2023-05-14T04:27:30.236Z,12.11
2023-05-14T04:29:33.375Z,12.07
2023-05-14T04:31:36.390Z,12.01
2023-05-14T04:33:39.878Z,12.09
2023-05-14T04:35:42.961Z,12.15
2023-05-14T04:37:45.757Z,12.19
2023-05-14T04:39:50.908Z,12.12
2023-05-14T04:41:54.164Z,12.18
2023-05-14T04:43:57.497Z,12.24
2023-05-14T04:46:00.667Z,12.19
2023-05-14T04:48:04.137Z,12.19
2023-05-14T04:50:09.232Z,12.18
2023-05-14T04:52:12.842Z,12.21
2023-05-14T04:54:15.763Z,12.22
2023-05-14T04:56:20.077Z,12.31
2023-05-14T04:58:24.101Z,12.40
2023-05-14T05:00:27.268Z,12.62
2023-05-14T05:02:30.410Z,12.83
2023-05-14T05:04:34.757Z,13.51
2023-05-14T05:06:37.560Z,14.37
2023-05-14T05:08:41.039Z,14.93
2023-05-14T05:10:43.940Z,15.38
2023-05-14T05:12:48.668Z,15.90
2023-05-14T05:14:51.495Z,16.33
2023-05-14T05:16:54.439Z,16.91
2023-05-14T05:18:57.358Z,16.83
2023-05-14T05:21:00.701Z,17.36
2023-05-14T05:23:03.504Z,17.56
2023-05-14T05:25:08.106Z,17.90
2023-05-14T05:27:11.002Z,18.63
2023-05-14T05:29:15.285Z,19.08
2023-05-14T05:31:19.781Z,19.22
2023-05-14T05:33:23.050Z,20.04
2023-05-14T05:35:26.242Z,20.43
2023-05-14T05:37:29.078Z,21.09
2023-05-14T05:39:35.084Z,21.24
2023-05-14T05:41:38.464Z,21.34
2023-05-14T05:43:41.717Z,20.39
2023-05-14T05:45:46.698Z,19.40
2023-05-14T05:47:49.719Z,18.92
2023-05-14T05:49:54.070Z,18.49
2023-05-14T05:51:56.984Z,18.26
2023-05-14T05:54:00.136Z,17.61
2023-05-14T05:56:03.053Z,17.31
2023-05-14T05:58:06.240Z,17.40
2023-05-14T06:00:14.250Z,17.43
2023-05-14T06:02:18.827Z,17.47
2023-05-14T06:04:21.782Z,18.05
2023-05-14T06:06:24.951Z,18.52
2023-05-14T06:08:28.778Z,19.16
2023-05-14T06:10:31.816Z,19.74
2023-05-14T06:12:35.141Z,20.29
2023-05-14T06:14:38.754Z,21.07
2023-05-14T06:16:41.867Z,21.23
2023-05-14T06:18:46.765Z,21.63
2023-05-14T06:20:50.032Z,21.83
2023-05-14T06:22:52.994Z,22.62
2023-05-14T06:24:55.967Z,22.77
2023-05-14T06:26:58.969Z,22.98
2023-05-14T06:29:01.943Z,23.39
2023-05-14T06:31:04.843Z,23.38
2023-05-14T06:33:07.888Z,23.86
2023-05-14T06:35:12.506Z,23.18
2023-05-14T06:37:15.509Z,23.12
2023-05-14T06:39:18.432Z,24.42
2023-05-14T06:41:21.312Z,24.61
2023-05-14T06:43:24.288Z,25.04
2023-05-14T06:45:27.426Z,25.26
2023-05-14T06:47:30.564Z,25.63
2023-05-14T06:49:33.884Z,25.19
2023-05-14T06:51:40.741Z,25.82
2023-05-14T06:53:43.821Z,26.21
2023-05-14T06:55:49.257Z,25.53
2023-05-14T06:57:52.476Z,25.61
2023-05-14T06:59:55.417Z,25.45
2023-05-14T07:01:58.478Z,25.91
2023-05-14T07:04:01.856Z,25.58
2023-05-14T07:06:05.405Z,25.68
2023-05-14T07:08:10.052Z,25.30
2023-05-14T07:10:13.371Z,24.22
2023-05-14T07:12:16.701Z,23.98
2023-05-14T07:14:20.377Z,24.08
2023-05-14T07:16:23.532Z,24.75
2023-05-14T07:18:26.915Z,24.70
2023-05-14T07:20:30.139Z,24.16
2023-05-14T07:22:33.144Z,25.33
2023-05-14T07:24:37.457Z,25.82
2023-05-14T07:26:40.901Z,26.31
2023-05-14T07:28:44.063Z,27.08
2023-05-14T07:30:47.384Z,26.28
2023-05-14T07:32:50.381Z,26.41
2023-05-14T07:34:53.277Z,26.47
2023-05-14T07:36:56.446Z,26.55
2023-05-14T07:38:59.856Z,27.27
2023-05-14T07:41:04.420Z,28.38
2023-05-14T07:43:08.323Z,28.39
2023-05-14T07:45:12.053Z,28.50
2023-05-14T07:47:15.718Z,28.08
2023-05-14T07:49:18.952Z,28.22
2023-05-14T07:51:22.113Z,27.72
2023-05-14T07:53:26.203Z,27.52
2023-05-14T07:55:32.020Z,28.59
2023-05-14T07:57:37.568Z,29.03
2023-05-14T07:59:43.156Z,28.85
2023-05-14T08:01:46.304Z,27.55
2023-05-14T08:03:49.802Z,27.31
2023-05-14T08:05:53.464Z,28.25
2023-05-14T08:07:56.552Z,28.56
2023-05-14T08:09:59.474Z,29.67
2023-05-14T08:12:02.510Z,29.88
2023-05-14T08:14:06.988Z,30.29
2023-05-14T08:16:10.136Z,30.75
2023-05-14T08:18:13.150Z,30.83
2023-05-14T08:20:16.216Z,29.76
2023-05-14T08:22:19.482Z,30.92
2023-05-14T08:24:22.979Z,28.57
2023-05-14T08:26:26.538Z,28.60
2023-05-14T08:28:29.592Z,27.59
2023-05-14T08:30:34.500Z,28.01
2023-05-14T08:32:38.663Z,28.66
2023-05-14T08:34:43.899Z,28.41
2023-05-14T08:36:47.527Z,28.70
2023-05-14T08:38:50.952Z,29.06
2023-05-14T08:40:57.883Z,29.70
2023-05-14T08:43:04.065Z,29.34
2023-05-14T08:45:13.100Z,29.66
2023-05-14T08:47:21.957Z,29.98
2023-05-14T08:49:34.158Z,30.91
2023-05-14T08:51:37.134Z,30.05
2023-05-14T08:53:40.678Z,29.64
2023-05-14T08:55:44.334Z,30.49
2023-05-14T08:57:47.624Z,30.49
2023-05-14T08:59:51.010Z,29.42
2023-05-14T09:01:55.274Z,29.17
2023-05-14T09:04:01.640Z,28.37
2023-05-14T09:06:05.755Z,28.53
2023-05-14T09:08:08.916Z,29.70
2023-05-14T09:10:12.691Z,28.95
2023-05-14T09:12:16.063Z,28.02
2023-05-14T09:14:20.842Z,27.66
2023-05-14T09:16:24.374Z,26.93
2023-05-14T09:18:27.385Z,26.52
2023-05-14T09:20:32.819Z,26.30
2023-05-14T09:22:36.051Z,26.34
2023-05-14T09:24:39.577Z,26.87
2023-05-14T09:26:42.909Z,28.04
2023-05-14T09:28:46.050Z,28.37
2023-05-14T09:30:52.280Z,28.43
2023-05-14T09:32:56.116Z,28.69
2023-05-14T09:34:59.276Z,28.60
2023-05-14T09:37:05.639Z,28.48
2023-05-14T09:39:08.661Z,28.98
2023-05-14T09:41:11.808Z,28.63
2023-05-14T09:43:14.827Z,28.29
2023-05-14T09:45:18.487Z,28.01
2023-05-14T09:47:21.528Z,27.65
2023-05-14T09:49:24.591Z,28.39
2023-05-14T09:51:31.665Z,28.15
2023-05-14T09:53:36.894Z,27.84
2023-05-14T09:55:40.492Z,27.86
2023-05-14T09:57:43.525Z,27.93
2023-05-14T09:59:46.560Z,28.22
2023-05-14T10:01:50.610Z,28.55
2023-05-14T10:03:54.115Z,28.18
2023-05-14T10:05:58.551Z,27.84
2023-05-14T10:08:04.585Z,27.89
2023-05-14T10:10:13.844Z,27.99
2023-05-14T10:12:17.927Z,27.76
2023-05-14T10:14:25.781Z,27.23
2023-05-14T10:16:30.413Z,27.99
2023-05-14T10:18:40.048Z,27.85
2023-05-14T10:20:43.350Z,27.66
2023-05-14T10:22:46.702Z,27.27
2023-05-14T10:24:52.431Z,27.77
2023-05-14T10:26:58.728Z,27.87
2023-05-14T10:29:01.800Z,27.55
2023-05-14T10:31:04.939Z,27.83
2023-05-14T10:33:09.585Z,27.96
2023-05-14T10:35:20.871Z,27.40
2023-05-14T10:37:25.520Z,27.13
2023-05-14T10:39:44.529Z,26.84
2023-05-14T10:41:47.510Z,27.36
2023-05-14T10:43:52.060Z,27.03
2023-05-14T10:45:55.082Z,27.02
2023-05-14T10:47:58.174Z,27.44
2023-05-14T10:50:04.189Z,27.92
2023-05-14T10:52:09.533Z,27.63
2023-05-14T10:54:13.588Z,27.46
2023-05-14T10:56:16.570Z,27.67
2023-05-14T10:58:19.627Z,27.33
2023-05-14T11:00:27.859Z,27.86
2023-05-14T11:02:32.953Z,27.90
2023-05-14T11:04:36.286Z,28.09
2023-05-14T11:06:39.789Z,28.03
2023-05-14T11:08:43.060Z,28.20
2023-05-14T11:10:47.124Z,28.37
2023-05-14T11:12:51.554Z,27.92
2023-05-14T11:14:54.805Z,28.07
2023-05-14T11:16:59.339Z,27.61
2023-05-14T11:19:04.466Z,27.75
2023-05-14T11:21:07.540Z,27.62
2023-05-14T11:23:10.854Z,27.61
2023-05-14T11:25:15.224Z,28.04
2023-05-14T11:27:19.208Z,27.80
2023-05-14T11:29:22.200Z,27.43
2023-05-14T11:31:25.516Z,27.82
2023-05-14T11:33:30.793Z,28.13
2023-05-14T11:35:34.792Z,27.84
2023-05-14T11:37:37.972Z,27.17
2023-05-14T11:39:41.509Z,27.75
2023-05-14T11:41:45.806Z,27.72
2023-05-14T11:43:48.974Z,27.91
2023-05-14T11:45:52.650Z,28.40
2023-05-14T11:47:56.032Z,28.67
2023-05-14T11:50:00.449Z,28.13
2023-05-14T11:52:04.997Z,28.39
2023-05-14T11:54:07.920Z,28.67
2023-05-14T11:56:11.436Z,28.44
2023-05-14T11:58:16.029Z,28.46
2023-05-14T12:00:22.255Z,28.63
2023-05-14T12:02:28.192Z,27.68
2023-05-14T12:04:31.458Z,27.69
2023-05-14T12:06:35.869Z,27.64
2023-05-14T12:08:38.861Z,27.98
2023-05-14T12:10:43.395Z,27.98
2023-05-14T12:12:47.317Z,28.08
2023-05-14T12:14:52.593Z,27.66
2023-05-14T12:16:56.009Z,28.04
2023-05-14T12:19:01.782Z,28.21
2023-05-14T12:21:06.722Z,28.33
2023-05-14T12:23:13.187Z,28.19
2023-05-14T12:25:16.379Z,28.06
2023-05-14T12:27:23.388Z,27.67
2023-05-14T12:29:27.890Z,27.69
2023-05-14T12:31:31.264Z,28.02
2023-05-14T12:33:34.358Z,28.60
2023-05-14T12:35:37.962Z,28.76
2023-05-14T12:37:41.933Z,28.86
2023-05-14T12:39:46.568Z,28.92
2023-05-14T12:41:49.625Z,28.78
2023-05-14T12:43:52.771Z,29.20
2023-05-14T12:45:56.105Z,28.97
2023-05-14T12:47:59.774Z,29.07
2023-05-14T12:50:02.756Z,28.84
2023-05-14T12:52:25.677Z,28.29
2023-05-14T12:54:29.495Z,28.15
2023-05-14T12:56:33.907Z,27.97
2023-05-14T12:58:36.980Z,28.40
2023-05-14T13:00:39.974Z,28.74
2023-05-14T13:02:43.839Z,28.45
2023-05-14T13:04:47.288Z,28.33
2023-05-14T13:06:50.295Z,28.75
2023-05-14T13:08:53.733Z,28.54
2023-05-14T13:10:57.438Z,28.77
2023-05-14T13:13:02.461Z,29.21
2023-05-14T13:15:06.300Z,28.93
2023-05-14T13:17:09.353Z,28.98
2023-05-14T13:19:12.333Z,29.08
2023-05-14T13:21:15.697Z,29.67
2023-05-14T13:23:18.765Z,29.60
2023-05-14T13:25:21.815Z,29.50
2023-05-14T13:27:25.149Z,29.23
2023-05-14T13:29:31.550Z,28.52
2023-05-14T13:31:34.621Z,28.14
2023-05-14T13:33:38.743Z,28.34
2023-05-14T13:35:41.794Z,28.49
2023-05-14T13:37:44.987Z,28.60
2023-05-14T13:39:49.537Z,28.88
2023-05-14T13:41:56.820Z,29.23
2023-05-14T13:44:00.612Z,28.85
2023-05-14T13:46:06.789Z,29.02
2023-05-14T13:48:10.433Z,28.31
2023-05-14T13:50:14.214Z,28.60
2023-05-14T13:52:17.324Z,28.60
2023-05-14T13:54:20.347Z,27.43
2023-05-14T13:56:23.356Z,27.63
2023-05-14T13:58:26.707Z,27.68
2023-05-14T14:00:29.944Z,27.59
2023-05-14T14:02:34.470Z,26.98
2023-05-14T14:04:37.445Z,26.26
2023-05-14T14:06:40.742Z,26.44
2023-05-14T14:08:44.926Z,26.36
2023-05-14T14:10:48.336Z,26.30
2023-05-14T14:12:51.466Z,25.61
2023-05-14T14:14:54.433Z,24.88
2023-05-14T14:16:57.509Z,25.22
2023-05-14T14:19:02.119Z,25.03
2023-05-14T14:21:05.405Z,25.53
2023-05-14T14:23:08.432Z,25.98
2023-05-14T14:25:12.629Z,26.08
2023-05-14T14:27:15.819Z,25.24
2023-05-14T14:29:18.809Z,25.12
2023-05-14T14:31:22.085Z,24.97
2023-05-14T14:33:25.044Z,24.88
2023-05-14T14:35:30.638Z,24.73
2023-05-14T14:37:33.561Z,24.58
2023-05-14T14:39:36.717Z,24.68
2023-05-14T14:41:39.695Z,24.25
2023-05-14T14:43:43.617Z,24.50
2023-05-14T14:45:48.903Z,24.24
2023-05-14T14:47:52.417Z,24.68
2023-05-14T14:49:55.539Z,24.89
2023-05-14T14:51:59.914Z,25.05
2023-05-14T14:54:04.889Z,24.94
2023-05-14T14:56:08.463Z,25.02
2023-05-14T14:58:11.627Z,24.82
2023-05-14T15:00:16.702Z,24.80
2023-05-14T15:02:19.792Z,24.89
2023-05-14T15:04:22.951Z,24.48
2023-05-14T15:06:26.265Z,24.69
2023-05-14T15:08:30.790Z,24.95
2023-05-14T15:10:37.899Z,25.09
2023-05-14T15:12:40.861Z,25.23
2023-05-14T15:14:44.370Z,25.47
2023-05-14T15:16:49.617Z,25.47
2023-05-14T15:18:54.180Z,25.64
2023-05-14T15:20:57.854Z,25.68
2023-05-14T15:23:00.797Z,25.50
2023-05-14T15:25:06.250Z,25.74
2023-05-14T15:27:09.208Z,25.59
2023-05-14T15:29:12.063Z,25.60
2023-05-14T15:31:15.549Z,25.24
2023-05-14T15:33:19.344Z,24.98
2023-05-14T15:35:23.123Z,24.28
2023-05-14T15:37:27.183Z,24.22
2023-05-14T15:39:31.375Z,23.87
2023-05-14T15:41:36.041Z,23.90
2023-05-14T15:43:39.031Z,23.64
2023-05-14T15:45:42.078Z,23.88
2023-05-14T15:47:45.632Z,23.67
2023-05-14T15:49:49.098Z,23.65
2023-05-14T15:51:52.333Z,23.58
2023-05-14T15:53:55.546Z,23.62
2023-05-14T15:55:58.421Z,23.46
2023-05-14T15:58:03.166Z,23.56
2023-05-14T16:00:10.723Z,23.41
2023-05-14T16:02:13.690Z,23.54
2023-05-14T16:04:16.567Z,23.58
2023-05-14T16:06:19.466Z,23.49
2023-05-14T16:08:22.426Z,23.52
2023-05-14T16:10:25.528Z,23.53
2023-05-14T16:12:29.174Z,23.60
2023-05-14T16:14:34.357Z,23.58
2023-05-14T16:16:37.621Z,23.08
2023-05-14T16:18:42.727Z,23.31
2023-05-14T16:20:45.738Z,23.32
2023-05-14T16:22:48.706Z,23.40
2023-05-14T16:24:51.684Z,23.38
2023-05-14T16:26:54.756Z,23.27
2023-05-14T16:28:57.662Z,23.35
2023-05-14T16:31:04.999Z,23.35
2023-05-14T16:33:08.146Z,23.32
2023-05-14T16:35:12.444Z,23.36
2023-05-14T16:37:16.339Z,23.27
2023-05-14T16:39:19.345Z,23.09
2023-05-14T16:41:22.998Z,23.10
2023-05-14T16:43:26.182Z,23.21
2023-05-14T16:45:29.620Z,23.24
2023-05-14T16:47:34.191Z,22.85
2023-05-14T16:49:37.682Z,22.73
2023-05-14T16:51:43.116Z,22.77
2023-05-14T16:53:46.090Z,22.83
2023-05-14T16:55:49.121Z,22.93
2023-05-14T16:57:52.577Z,23.04
2023-05-14T16:59:55.557Z,22.61
2023-05-14T17:01:58.615Z,22.62
2023-05-14T17:04:03.606Z,22.86
2023-05-14T17:06:07.119Z,22.93
2023-05-14T17:08:10.315Z,22.93
2023-05-14T17:10:13.448Z,22.97
2023-05-14T17:12:16.421Z,22.92
2023-05-14T17:14:19.373Z,22.93
2023-05-14T17:16:22.796Z,22.78
2023-05-14T17:18:25.806Z,22.70
2023-05-14T17:20:30.960Z,22.72
2023-05-14T17:22:34.386Z,22.68
2023-05-14T17:24:39.034Z,22.71
2023-05-14T17:26:41.991Z,22.63
2023-05-14T17:28:45.087Z,22.54
2023-05-14T17:30:48.192Z,22.45
2023-05-14T17:32:51.435Z,22.53
2023-05-14T17:34:54.621Z,22.60
2023-05-14T17:37:01.226Z,22.49
2023-05-14T17:39:04.277Z,22.34
2023-05-14T17:41:07.288Z,22.31
2023-05-14T17:43:10.335Z,22.07
2023-05-14T17:45:14.483Z,22.19
2023-05-14T17:47:20.533Z,22.12
2023-05-14T17:49:23.424Z,22.12
2023-05-14T17:51:26.526Z,21.43
2023-05-14T17:53:30.784Z,21.45
2023-05-14T17:55:39.878Z,21.53
2023-05-14T17:57:42.795Z,21.54
2023-05-14T17:59:45.822Z,21.48
2023-05-14T18:01:49.255Z,21.19
2023-05-14T18:03:52.529Z,21.24
2023-05-14T18:05:55.867Z,21.10
2023-05-14T18:07:59.132Z,21.04
2023-05-14T18:10:03.444Z,21.11
2023-05-14T18:12:07.193Z,20.86
2023-05-14T18:14:10.155Z,21.04
2023-05-14T18:16:13.388Z,20.78
2023-05-14T18:18:17.138Z,20.84
2023-05-14T18:20:20.202Z,20.78
2023-05-14T18:22:24.638Z,20.61
2023-05-14T18:24:27.598Z,20.86
2023-05-14T18:26:34.221Z,20.95
2023-05-14T18:28:37.900Z,20.91
2023-05-14T18:30:40.932Z,20.82
2023-05-14T18:32:45.301Z,20.93
2023-05-14T18:34:48.295Z,20.93
2023-05-14T18:36:51.196Z,21.03
2023-05-14T18:38:54.066Z,21.03
2023-05-14T18:40:57.023Z,21.07
2023-05-14T18:43:01.628Z,21.11
2023-05-14T18:45:05.169Z,20.94
2023-05-14T18:47:08.548Z,21.04
2023-05-14T18:49:11.458Z,21.07
2023-05-14T18:51:14.426Z,21.11
2023-05-14T18:53:17.270Z,21.08
2023-05-14T18:55:20.328Z,21.06
2023-05-14T18:57:23.965Z,21.09
2023-05-14T18:59:28.610Z,21.09
2023-05-14T19:01:31.566Z,21.06
2023-05-14T19:03:34.862Z,21.05
2023-05-14T19:05:37.951Z,21.03
2023-05-14T19:07:41.759Z,20.95
2023-05-14T19:09:44.822Z,20.98
2023-05-14T19:11:47.958Z,21.00
2023-05-14T19:13:50.996Z,20.98
2023-05-14T19:15:55.625Z,20.49
2023-05-14T19:17:59.124Z,20.69
2023-05-14T19:20:02.200Z,20.74
2023-05-14T19:22:05.377Z,20.58
2023-05-14T19:24:08.870Z,20.43
2023-05-14T19:26:12.231Z,20.29
2023-05-14T19:28:15.300Z,20.24
2023-05-14T19:30:18.559Z,20.21
2023-05-14T19:32:23.039Z,20.23
2023-05-14T19:34:27.107Z,20.20
2023-05-14T19:36:31.737Z,20.12
2023-05-14T19:38:34.837Z,20.02
2023-05-14T19:40:38.132Z,19.98
2023-05-14T19:42:41.303Z,19.91
2023-05-14T19:44:44.890Z,19.84
2023-05-14T19:46:47.989Z,19.79
2023-05-14T19:48:52.750Z,19.70
2023-05-14T19:50:56.501Z,19.67
2023-05-14T19:52:59.760Z,19.65
2023-05-14T19:55:02.935Z,19.62
2023-05-14T19:57:08.234Z,19.61
2023-05-14T19:59:11.299Z,19.59
2023-05-14T20:01:14.504Z,19.54
2023-05-14T20:03:17.636Z,19.47
2023-05-14T20:05:23.664Z,19.43
2023-05-14T20:07:27.094Z,19.18
2023-05-14T20:09:30.451Z,19.12
2023-05-14T20:11:33.401Z,19.08
2023-05-14T20:13:36.968Z,19.17
2023-05-14T20:15:40.332Z,19.14
2023-05-14T20:17:45.595Z,19.11
2023-05-14T20:19:48.942Z,19.09
2023-05-14T20:21:53.689Z,19.06
2023-05-14T20:23:56.637Z,18.96
2023-05-14T20:26:01.904Z,18.92
2023-05-14T20:28:05.583Z,18.80
2023-05-14T20:30:09.613Z,18.72
2023-05-14T20:32:12.596Z,18.72
2023-05-14T20:34:15.607Z,18.73
2023-05-14T20:36:18.566Z,18.66
2023-05-14T20:38:23.532Z,18.57
2023-05-14T20:40:26.638Z,18.70
2023-05-14T20:42:30.162Z,18.66
2023-05-14T20:44:33.476Z,18.67
2023-05-14T20:46:36.714Z,18.62
2023-05-14T20:48:40.038Z,18.54
2023-05-14T20:50:43.233Z,18.31
2023-05-14T20:52:46.821Z,18.17
2023-05-14T20:54:51.238Z,18.05
2023-05-14T20:56:54.307Z,18.04
2023-05-14T20:58:57.761Z,17.94
2023-05-14T21:01:00.803Z,17.95
2023-05-14T21:03:04.328Z,17.93
2023-05-14T21:05:08.343Z,17.89
2023-05-14T21:07:11.324Z,17.85
2023-05-14T21:09:16.625Z,17.77
2023-05-14T21:11:22.969Z,17.82
2023-05-14T21:13:25.983Z,17.88
2023-05-14T21:15:30.609Z,17.98
2023-05-14T21:17:33.656Z,17.89
2023-05-14T21:19:36.663Z,17.85
2023-05-14T21:21:40.226Z,17.90
2023-05-14T21:23:43.200Z,17.63
2023-05-14T21:25:46.252Z,17.47
2023-05-14T21:27:50.822Z,17.55
2023-05-14T21:29:53.860Z,17.39
2023-05-14T21:31:57.425Z,17.50
2023-05-14T21:34:00.737Z,17.61
2023-05-14T21:36:03.860Z,17.60
2023-05-14T21:38:08.861Z,17.61
2023-05-14T21:40:13.420Z,17.44
2023-05-14T21:42:17.765Z,17.58
2023-05-14T21:44:22.768Z,17.54
2023-05-14T21:46:26.124Z,17.59
2023-05-14T21:48:29.874Z,17.58
2023-05-14T21:50:32.879Z,17.59
2023-05-14T21:52:36.176Z,17.55
2023-05-14T21:54:39.317Z,17.50
2023-05-14T21:56:42.231Z,17.45
2023-05-14T21:58:45.860Z,17.39
2023-05-14T22:00:50.434Z,17.35
2023-05-14T22:02:54.146Z,17.40
2023-05-14T22:04:58.392Z,17.41
2023-05-14T22:07:01.612Z,17.26
2023-05-14T22:09:04.842Z,17.16
2023-05-14T22:11:07.918Z,17.14
2023-05-14T22:13:11.088Z,17.19
2023-05-14T22:15:14.005Z,17.22
2023-05-14T22:17:18.813Z,17.25
2023-05-14T22:19:22.396Z,17.20
2023-05-14T22:21:25.425Z,17.12
2023-05-14T22:23:28.550Z,16.67
2023-05-14T22:25:31.757Z,16.69
2023-05-14T22:27:34.884Z,16.83
2023-05-14T22:29:38.512Z,16.43
2023-05-14T22:31:41.745Z,16.65
2023-05-14T22:33:46.171Z,16.54
2023-05-14T22:35:49.298Z,16.57
2023-05-14T22:37:52.376Z,16.81
2023-05-14T22:39:55.346Z,16.61
2023-05-14T22:41:58.456Z,16.49
2023-05-14T22:44:01.378Z,16.51
2023-05-14T22:46:04.931Z,16.48
2023-05-14T22:48:09.309Z,16.49
2023-05-14T22:50:13.605Z,16.46
2023-05-14T22:52:16.555Z,16.53
2023-05-14T22:54:19.812Z,16.58
2023-05-14T22:56:23.050Z,16.40
2023-05-14T22:58:26.227Z,16.42
2023-05-14T23:00:29.205Z,16.51
2023-05-14T23:02:32.762Z,16.58
2023-05-14T23:04:36.397Z,16.61
2023-05-14T23:06:41.138Z,16.64
2023-05-14T23:08:45.640Z,16.36
2023-05-14T23:10:48.567Z,16.41
2023-05-14T23:12:51.669Z,16.46
2023-05-14T23:14:54.895Z,16.47
2023-05-14T23:16:58.036Z,16.41
2023-05-14T23:19:01.173Z,16.41
2023-05-14T23:21:04.296Z,16.23
2023-05-14T23:23:08.961Z,16.34
2023-05-14T23:25:12.058Z,16.29
2023-05-14T23:27:15.000Z,16.25
2023-05-14T23:29:18.033Z,16.12
2023-05-14T23:31:22.111Z,16.11
2023-05-14T23:33:25.460Z,16.06
2023-05-14T23:35:28.637Z,15.97
2023-05-14T23:37:31.680Z,15.87
2023-05-14T23:39:36.015Z,15.85
2023-05-14T23:41:38.939Z,15.82
2023-05-14T23:43:41.816Z,15.95
2023-05-14T23:45:44.782Z,15.94
2023-05-14T23:47:48.210Z,15.94
2023-05-14T23:49:51.219Z,15.80
2023-05-14T23:51:54.237Z,15.90
2023-05-14T23:53:58.489Z,15.97
2023-05-14T23:56:03.060Z,15.98
2023-05-14T23:58:06.409Z,15.97
